Tecumseh, Nebraska
Current Conditions -  °F | °C
As of 10:55 AM on Tuesday 27 Jan 2015 (Local Time) from KAFK Reporting Station
Clear Clear  
Wind Chill: 38°   Ceiling: Unl
Heat Index: 43°   Visibility: 10mi
Dew Point: 31°   Wind: 8mph
Humidity: 62%   Direction: 150°SSE
Pressure: 30.15"   Gusts: NA
Location:  40.37°N, 96.2°W
Report Text: KAFK 271655Z AUTO 15007KT 10SM CLR 06/M01 A3015 RMK AO2 T00611007
Loading
Personal Weather Stations






























Interactive Weather Map New forecast layout! Learn more

10-Day Weather Forecast

Advertisements
Track Severe Weather on mobile